createdAt,value
2019-02-05T00:02:12.130Z,2.30
2019-02-05T00:04:39.177Z,3.40
2019-02-05T00:07:06.208Z,2.37
2019-02-05T00:09:33.371Z,2.70
2019-02-05T00:12:00.474Z,2.70
2019-02-05T00:14:27.574Z,2.43
2019-02-05T00:16:54.654Z,2.13
2019-02-05T00:19:21.771Z,2.23
2019-02-05T00:21:48.918Z,2.00
2019-02-05T00:24:16.069Z,2.00
2019-02-05T00:26:43.213Z,2.73
2019-02-05T00:29:10.257Z,2.03
2019-02-05T00:31:37.618Z,2.03
2019-02-05T00:34:04.966Z,2.17
2019-02-05T00:36:32.830Z,2.10
2019-02-05T00:38:59.778Z,1.80
2019-02-05T00:41:26.724Z,1.70
2019-02-05T00:43:53.779Z,2.07
2019-02-05T00:46:20.920Z,1.90
2019-02-05T00:48:49.299Z,2.13
2019-02-05T00:51:16.347Z,1.73
2019-02-05T00:53:43.500Z,2.03
2019-02-05T00:56:17.403Z,1.60
2019-02-05T00:58:39.331Z,1.70
2019-02-05T01:01:06.788Z,2.00
2019-02-05T01:03:33.845Z,2.07
2019-02-05T01:06:01.197Z,1.60
2019-02-05T01:08:29.169Z,2.00
2019-02-05T01:10:56.318Z,1.80
2019-02-05T01:13:23.470Z,2.07
2019-02-05T01:15:51.132Z,2.03
2019-02-05T01:18:18.066Z,1.77
2019-02-05T01:20:45.229Z,1.90
2019-02-05T01:23:12.678Z,1.93
2019-02-05T01:25:39.731Z,1.90
2019-02-05T01:28:06.708Z,1.80
2019-02-05T01:30:33.716Z,1.87
2019-02-05T01:33:00.763Z,1.70
2019-02-05T01:35:27.605Z,1.63
2019-02-05T01:37:54.662Z,1.60
2019-02-05T01:40:23.141Z,1.60
2019-02-05T01:42:50.193Z,1.83
2019-02-05T01:45:17.947Z,1.70
2019-02-05T01:47:44.894Z,1.90
2019-02-05T01:50:13.172Z,1.50
2019-02-05T01:52:40.219Z,2.00
2019-02-05T01:55:08.291Z,1.80
2019-02-05T01:57:35.758Z,1.67
2019-02-05T02:00:05.734Z,1.80
2019-02-05T02:02:33.121Z,1.50
2019-02-05T02:05:00.749Z,1.60
2019-02-05T02:07:27.891Z,1.50
2019-02-05T02:09:54.813Z,1.43
2019-02-05T02:12:21.829Z,1.80
2019-02-05T02:14:49.381Z,1.50
2019-02-05T02:17:16.373Z,1.63
2019-02-05T02:19:43.486Z,1.70
2019-02-05T02:22:10.637Z,1.47
2019-02-05T02:24:37.778Z,1.83
2019-02-05T02:27:07.083Z,1.50
2019-02-05T02:29:34.034Z,1.43
2019-02-05T02:32:01.695Z,2.00
2019-02-05T02:34:28.837Z,1.67
2019-02-05T02:36:56.199Z,1.90
2019-02-05T02:39:23.547Z,1.90
2019-02-05T02:41:50.492Z,1.50
2019-02-05T02:44:17.651Z,1.70
2019-02-05T02:46:44.907Z,1.67
2019-02-05T02:49:12.043Z,1.80
2019-02-05T02:51:39.298Z,1.67
2019-02-05T02:54:06.252Z,1.43
2019-02-05T02:56:33.504Z,1.20
2019-02-05T02:59:00.543Z,1.40
2019-02-05T03:01:27.665Z,1.20
2019-02-05T03:03:55.773Z,1.20
2019-02-05T03:06:23.027Z,1.33
2019-02-05T03:08:50.178Z,1.10
2019-02-05T03:11:17.647Z,1.37
2019-02-05T03:13:44.775Z,1.43
2019-02-05T03:16:12.139Z,1.40
2019-02-05T03:18:39.598Z,1.40
2019-02-05T03:21:06.534Z,1.50
2019-02-05T03:23:34.440Z,1.30
2019-02-05T03:26:01.559Z,1.50
2019-02-05T03:28:28.710Z,1.20
2019-02-05T03:30:55.783Z,1.43
2019-02-05T03:33:23.417Z,1.47
2019-02-05T03:35:52.007Z,1.80
2019-02-05T03:38:19.349Z,1.50
2019-02-05T03:40:57.466Z,1.53
2019-02-05T03:43:25.184Z,1.70
2019-02-05T03:45:53.202Z,1.60
2019-02-05T03:48:20.656Z,1.87
2019-02-05T03:50:48.318Z,1.50
2019-02-05T03:53:32.461Z,1.60
2019-02-05T03:56:18.562Z,1.30
2019-02-05T03:58:57.633Z,1.33
2019-02-05T04:01:45.017Z,1.30
2019-02-05T04:04:17.401Z,1.40
2019-02-05T04:07:02.554Z,1.33
2019-02-05T04:09:31.351Z,1.40
2019-02-05T04:12:12.325Z,1.43
2019-02-05T04:14:41.216Z,1.23
2019-02-05T04:17:29.163Z,1.60
2019-02-05T04:19:58.062Z,1.17
2019-02-05T04:22:29.592Z,1.57
2019-02-05T04:25:14.876Z,1.47
2019-02-05T04:27:47.383Z,1.20
2019-02-05T04:30:22.696Z,1.50
2019-02-05T04:32:51.439Z,1.17
2019-02-05T04:35:26.218Z,1.67
2019-02-05T04:37:55.500Z,1.40
2019-02-05T04:40:27.423Z,1.40
2019-02-05T04:42:56.669Z,1.30
2019-02-05T04:45:43.584Z,1.40
2019-02-05T04:48:15.877Z,1.30
2019-02-05T04:50:47.918Z,1.57
2019-02-05T04:53:20.291Z,1.73
2019-02-05T04:55:55.941Z,1.37
2019-02-05T04:58:33.834Z,1.20
2019-02-05T05:01:19.429Z,1.33
2019-02-05T05:03:48.724Z,1.33
2019-02-05T05:06:23.761Z,2.00
2019-02-05T05:08:52.749Z,1.90
2019-02-05T05:11:19.701Z,1.77
2019-02-05T05:13:46.739Z,1.30
2019-02-05T05:16:14.003Z,1.50
2019-02-05T05:18:41.148Z,1.93
2019-02-05T05:21:08.086Z,1.77
2019-02-05T05:23:35.245Z,5.90
2019-02-05T05:26:02.396Z,3.07
2019-02-05T05:28:29.752Z,2.73
2019-02-05T05:30:57.106Z,1.90
2019-02-05T05:33:24.147Z,1.73
2019-02-05T05:35:51.192Z,3.83
2019-02-05T05:38:18.240Z,4.23
2019-02-05T05:40:45.603Z,2.10
2019-02-05T05:43:12.847Z,2.23
2019-02-05T05:45:39.904Z,2.10
2019-02-05T05:48:07.164Z,2.10
2019-02-05T05:50:34.203Z,2.27
2019-02-05T05:53:01.866Z,1.67
2019-02-05T05:55:29.418Z,2.10
2019-02-05T05:57:56.571Z,2.10
2019-02-05T06:00:24.340Z,2.60
2019-02-05T06:02:51.790Z,3.10
2019-02-05T06:05:18.645Z,3.77
2019-02-05T06:07:46.112Z,3.53
2019-02-05T06:10:16.022Z,1.90
2019-02-05T06:12:43.363Z,2.10
2019-02-05T06:15:11.030Z,2.93
2019-02-05T06:17:38.181Z,4.00
2019-02-05T06:20:07.194Z,2.00
2019-02-05T06:22:34.008Z,2.43
2019-02-05T06:25:01.307Z,3.00
2019-02-05T06:27:28.514Z,3.80
2019-02-05T06:29:56.189Z,3.10
2019-02-05T06:32:23.223Z,2.97
2019-02-05T06:34:51.036Z,2.50
2019-02-05T06:37:18.252Z,3.20
2019-02-05T06:39:45.603Z,4.10
2019-02-05T06:42:12.746Z,3.37
2019-02-05T06:44:39.803Z,2.80
2019-02-05T06:47:07.161Z,3.23
2019-02-05T06:49:35.395Z,3.90
2019-02-05T06:52:02.579Z,3.07
2019-02-05T06:54:29.523Z,4.07
2019-02-05T06:56:56.529Z,3.33
2019-02-05T06:59:23.627Z,3.73
2019-02-05T07:01:50.775Z,4.67
2019-02-05T07:04:17.617Z,2.50
2019-02-05T07:06:44.794Z,3.20
2019-02-05T07:09:11.817Z,3.23
2019-02-05T07:11:40.147Z,3.50
2019-02-05T07:14:07.141Z,3.90
2019-02-05T07:16:33.975Z,7.00
2019-02-05T07:19:00.858Z,7.73
2019-02-05T07:21:27.846Z,6.27
2019-02-05T07:23:54.824Z,7.53
2019-02-05T07:26:22.269Z,5.10
2019-02-05T07:28:58.144Z,3.40
2019-02-05T07:31:18.021Z,3.93
2019-02-05T07:33:45.256Z,4.83
2019-02-05T07:36:12.202Z,6.70
2019-02-05T07:38:40.528Z,9.23
2019-02-05T07:41:07.627Z,4.40
2019-02-05T07:43:34.676Z,4.63
2019-02-05T07:46:02.750Z,4.43
2019-02-05T07:48:30.538Z,4.13
2019-02-05T07:50:57.776Z,3.60
2019-02-05T07:53:26.555Z,3.83
2019-02-05T07:55:53.714Z,3.97
2019-02-05T07:58:20.753Z,3.57
2019-02-05T08:00:47.813Z,3.57
2019-02-05T08:03:14.961Z,3.53
2019-02-05T08:05:41.895Z,3.50
2019-02-05T08:08:09.669Z,4.37
2019-02-05T08:10:36.607Z,3.93
2019-02-05T08:13:03.549Z,5.13
2019-02-05T08:15:32.347Z,4.40
2019-02-05T08:17:59.489Z,4.60
2019-02-05T08:20:26.441Z,4.30
2019-02-05T08:22:53.441Z,5.90
2019-02-05T08:25:20.538Z,4.47
2019-02-05T08:27:47.687Z,5.50
2019-02-05T08:30:19.027Z,3.80
2019-02-05T08:32:46.075Z,5.30
2019-02-05T08:35:14.454Z,5.90
2019-02-05T08:37:41.706Z,4.87
2019-02-05T08:40:15.827Z,5.27
2019-02-05T08:42:42.879Z,5.23
2019-02-05T08:45:14.178Z,4.77
2019-02-05T08:47:39.980Z,5.00
2019-02-05T08:50:08.896Z,5.43
2019-02-05T08:52:35.892Z,6.03
2019-02-05T08:55:03.143Z,3.70
2019-02-05T08:57:30.453Z,3.73
2019-02-05T08:59:58.469Z,3.57
2019-02-05T09:02:25.628Z,3.20
2019-02-05T09:04:52.567Z,3.67
2019-02-05T09:07:21.661Z,3.70
2019-02-05T09:09:48.818Z,3.57
2019-02-05T09:12:17.944Z,4.30
2019-02-05T09:14:44.655Z,4.00
2019-02-05T09:17:11.806Z,3.47
2019-02-05T09:19:38.844Z,3.67
2019-02-05T09:22:06.002Z,3.07
2019-02-05T09:24:33.041Z,3.40
2019-02-05T09:27:00.610Z,2.80
2019-02-05T09:29:33.521Z,1.80
2019-02-05T09:31:56.554Z,2.03
2019-02-05T09:34:23.792Z,2.33
2019-02-05T09:36:50.951Z,2.13
2019-02-05T09:39:17.895Z,1.90
2019-02-05T09:41:45.140Z,2.30
2019-02-05T09:44:12.197Z,2.63
2019-02-05T09:46:40.477Z,2.70
2019-02-05T09:49:07.512Z,4.70
2019-02-05T09:51:34.671Z,4.73
2019-02-05T09:54:01.669Z,3.30
2019-02-05T09:56:28.615Z,3.13
2019-02-05T09:58:55.710Z,4.10
2019-02-05T10:01:22.753Z,3.70
2019-02-05T10:03:49.902Z,2.63
2019-02-05T10:06:17.981Z,2.40
2019-02-05T10:08:45.227Z,2.67
2019-02-05T10:11:12.178Z,3.23
2019-02-05T10:13:43.284Z,2.73
2019-02-05T10:16:10.273Z,2.80
2019-02-05T10:18:37.418Z,2.70
2019-02-05T10:21:04.560Z,3.87
2019-02-05T10:23:31.677Z,2.67
2019-02-05T10:25:58.744Z,2.23
2019-02-05T10:28:26.077Z,2.23
2019-02-05T10:30:53.271Z,2.20
2019-02-05T10:33:20.347Z,2.27
2019-02-05T10:35:47.470Z,2.70
2019-02-05T10:38:17.284Z,2.40
2019-02-05T10:40:44.264Z,3.40
2019-02-05T10:43:11.378Z,2.57
2019-02-05T10:45:38.519Z,2.27
2019-02-05T10:48:06.283Z,2.47
2019-02-05T10:50:33.238Z,2.77
2019-02-05T10:53:00.378Z,3.43
2019-02-05T10:55:27.538Z,2.50
2019-02-05T10:57:55.207Z,2.40
2019-02-05T11:00:27.053Z,4.00
2019-02-05T11:02:54.314Z,3.03
2019-02-05T11:05:22.582Z,4.60
2019-02-05T11:07:49.741Z,2.90
2019-02-05T11:10:17.802Z,3.23
2019-02-05T11:12:44.961Z,3.17
2019-02-05T11:15:13.650Z,2.60
2019-02-05T11:17:40.689Z,4.37
2019-02-05T11:20:09.579Z,4.00
2019-02-05T11:22:37.753Z,3.30
2019-02-05T11:25:06.037Z,3.07
2019-02-05T11:27:33.188Z,3.63
2019-02-05T11:30:00.337Z,3.53
2019-02-05T11:32:27.214Z,2.20
2019-02-05T11:34:54.434Z,2.73
2019-02-05T11:37:21.472Z,2.60
2019-02-05T11:39:48.430Z,2.23
2019-02-05T11:42:16.087Z,2.53
2019-02-05T11:44:43.473Z,3.43
2019-02-05T11:47:10.492Z,3.30
2019-02-05T11:49:37.633Z,3.83
2019-02-05T11:52:05.932Z,4.13
2019-02-05T11:54:33.068Z,3.23
2019-02-05T11:57:00.066Z,2.30
2019-02-05T11:59:27.165Z,3.97
2019-02-05T12:01:54.205Z,2.20
2019-02-05T12:04:21.264Z,1.97
2019-02-05T12:06:48.708Z,2.97
2019-02-05T12:09:16.791Z,2.50
2019-02-05T12:11:43.931Z,2.13
2019-02-05T12:14:12.207Z,2.80
2019-02-05T12:16:39.366Z,3.73
2019-02-05T12:19:06.509Z,2.27
2019-02-05T12:21:33.527Z,1.80
2019-02-05T12:24:00.671Z,2.03
2019-02-05T12:26:28.061Z,2.77
2019-02-05T12:28:55.123Z,2.30
2019-02-05T12:31:22.270Z,2.40
2019-02-05T12:33:49.312Z,2.70
2019-02-05T12:36:16.370Z,2.43
2019-02-05T12:38:44.632Z,2.27
2019-02-05T12:41:12.773Z,3.23
2019-02-05T12:43:41.009Z,2.83
2019-02-05T12:46:08.336Z,2.17
2019-02-05T12:48:35.386Z,2.10
2019-02-05T12:51:02.344Z,2.50
2019-02-05T12:53:32.138Z,3.10
2019-02-05T12:56:00.221Z,2.53
2019-02-05T12:58:27.372Z,2.43
2019-02-05T13:00:59.137Z,3.47
2019-02-05T13:03:23.308Z,2.10
2019-02-05T13:05:50.244Z,2.33
2019-02-05T13:08:17.258Z,2.17
2019-02-05T13:10:45.465Z,2.40
2019-02-05T13:13:12.524Z,2.40
2019-02-05T13:15:39.574Z,2.90
2019-02-05T13:18:06.721Z,2.00
2019-02-05T13:20:33.867Z,3.10
2019-02-05T13:23:01.041Z,2.97
2019-02-05T13:25:28.990Z,7.17
2019-02-05T13:27:56.133Z,2.97
2019-02-05T13:30:25.242Z,4.47
2019-02-05T13:32:52.591Z,2.07
2019-02-05T13:35:19.734Z,3.13
2019-02-05T13:37:47.096Z,4.03
2019-02-05T13:40:15.366Z,3.33
2019-02-05T13:42:44.365Z,2.07
2019-02-05T13:45:13.461Z,2.50
2019-02-05T13:47:43.478Z,2.70
2019-02-05T13:50:15.136Z,2.30
2019-02-05T13:52:42.391Z,2.57
2019-02-05T13:55:10.766Z,3.37
2019-02-05T13:57:37.917Z,2.90
2019-02-05T14:00:10.256Z,2.70
2019-02-05T14:02:37.337Z,2.23
2019-02-05T14:05:06.124Z,2.50
2019-02-05T14:07:34.189Z,2.30
2019-02-05T14:10:01.552Z,2.13
2019-02-05T14:12:28.590Z,2.00
2019-02-05T14:14:55.750Z,2.27
2019-02-05T14:17:22.803Z,2.23
2019-02-05T14:19:49.837Z,2.00
2019-02-05T14:22:16.994Z,2.10
2019-02-05T14:24:44.136Z,2.13
2019-02-05T14:27:11.186Z,2.00
2019-02-05T14:29:38.343Z,1.80
2019-02-05T14:32:05.381Z,2.30
2019-02-05T14:34:32.399Z,2.30
2019-02-05T14:36:59.373Z,2.50
2019-02-05T14:39:26.329Z,3.03
2019-02-05T14:41:53.482Z,2.70
2019-02-05T14:44:20.621Z,2.10
2019-02-05T14:46:48.899Z,1.93
2019-02-05T14:49:15.913Z,2.20
2019-02-05T14:51:43.978Z,2.40
2019-02-05T14:54:11.072Z,2.47
2019-02-05T14:56:38.324Z,2.40
2019-02-05T14:59:05.364Z,3.30
2019-02-05T15:01:42.691Z,3.57
2019-02-05T15:04:01.609Z,3.50
2019-02-05T15:06:28.668Z,4.23
2019-02-05T15:08:56.946Z,4.70
2019-02-05T15:11:24.095Z,3.60
2019-02-05T15:13:51.243Z,2.97
2019-02-05T15:16:18.284Z,3.00
2019-02-05T15:18:45.331Z,3.23
2019-02-05T15:21:12.796Z,4.40
2019-02-05T15:23:39.902Z,3.30
2019-02-05T15:26:06.882Z,3.20
2019-02-05T15:28:33.876Z,3.20
2019-02-05T15:31:00.786Z,3.00
2019-02-05T15:33:41.349Z,4.23
2019-02-05T15:36:19.415Z,4.70
2019-02-05T15:38:46.503Z,4.70
2019-02-05T15:41:13.745Z,4.90
2019-02-05T15:43:41.827Z,6.67
2019-02-05T15:46:08.865Z,5.87
2019-02-05T15:48:35.913Z,5.53
2019-02-05T15:51:03.282Z,5.67
2019-02-05T15:53:30.422Z,6.27
2019-02-05T15:55:57.373Z,5.43
2019-02-05T15:58:24.413Z,7.63
2019-02-05T16:00:51.571Z,6.93
2019-02-05T16:03:18.816Z,6.90
2019-02-05T16:05:46.075Z,7.40
2019-02-05T16:08:13.115Z,6.97
2019-02-05T16:10:40.371Z,6.80
2019-02-05T16:13:07.424Z,8.43
2019-02-05T16:15:34.519Z,5.77
2019-02-05T16:18:01.621Z,5.03
2019-02-05T16:20:28.876Z,4.87
2019-02-05T16:23:00.626Z,6.10
2019-02-05T16:25:27.476Z,6.47
2019-02-05T16:27:54.821Z,6.77
2019-02-05T16:30:26.081Z,5.50
2019-02-05T16:32:57.830Z,5.27
2019-02-05T16:35:25.114Z,4.83
2019-02-05T16:37:53.767Z,5.03
2019-02-05T16:40:37.511Z,3.93
2019-02-05T16:43:04.973Z,4.37
2019-02-05T16:45:32.019Z,4.20
2019-02-05T16:47:59.160Z,7.40
2019-02-05T16:50:27.232Z,8.90
2019-02-05T16:52:54.392Z,7.40
2019-02-05T16:55:21.533Z,7.00
2019-02-05T16:57:48.999Z,5.90
2019-02-05T17:00:17.377Z,6.97
2019-02-05T17:02:44.418Z,7.60
2019-02-05T17:05:11.471Z,8.23
2019-02-05T17:07:38.517Z,6.73
2019-02-05T17:10:07.509Z,7.53
2019-02-05T17:12:34.671Z,7.07
2019-02-05T17:15:04.374Z,8.43
2019-02-05T17:17:31.527Z,8.40
2019-02-05T17:19:58.573Z,8.90
2019-02-05T17:22:25.634Z,7.57
2019-02-05T17:24:52.660Z,9.03
2019-02-05T17:27:20.743Z,8.07
2019-02-05T17:29:50.151Z,8.57
2019-02-05T17:32:16.609Z,8.80
2019-02-05T17:34:43.624Z,8.47
2019-02-05T17:37:10.662Z,9.30
2019-02-05T17:39:37.815Z,8.17
2019-02-05T17:42:04.868Z,11.07
2019-02-05T17:44:33.688Z,8.33
2019-02-05T17:47:02.547Z,7.37
2019-02-05T17:49:30.000Z,7.33
2019-02-05T17:51:57.045Z,9.63
2019-02-05T17:54:24.205Z,10.60
2019-02-05T17:56:51.345Z,10.23
2019-02-05T17:59:18.298Z,11.03
2019-02-05T18:01:45.452Z,12.63
2019-02-05T18:04:12.693Z,12.50
2019-02-05T18:06:39.741Z,12.00
2019-02-05T18:09:07.415Z,11.13
2019-02-05T18:11:35.074Z,10.37
2019-02-05T18:14:02.225Z,11.33
2019-02-05T18:16:29.265Z,9.80
2019-02-05T18:18:57.438Z,8.10
2019-02-05T18:21:24.486Z,8.10
2019-02-05T18:23:52.464Z,10.03
2019-02-05T18:26:20.014Z,9.07
2019-02-05T18:28:47.071Z,6.70
2019-02-05T18:31:14.006Z,8.97
2019-02-05T18:33:42.708Z,7.13
2019-02-05T18:36:09.844Z,9.23
2019-02-05T18:38:37.008Z,10.40
2019-02-05T18:41:04.086Z,11.73
2019-02-05T18:43:32.318Z,10.00
2019-02-05T18:45:59.232Z,6.33
2019-02-05T18:48:26.979Z,9.03
2019-02-05T18:50:54.152Z,8.60
2019-02-05T18:53:21.025Z,12.17
2019-02-05T18:55:48.197Z,10.87
2019-02-05T18:58:15.333Z,10.70
2019-02-05T19:00:45.884Z,9.50
2019-02-05T19:03:15.924Z,6.47
2019-02-05T19:05:43.344Z,6.47
2019-02-05T19:08:10.279Z,6.53
2019-02-05T19:10:37.541Z,8.50
2019-02-05T19:13:04.582Z,10.23
2019-02-05T19:15:32.761Z,9.83
2019-02-05T19:18:00.326Z,10.10
2019-02-05T19:20:28.387Z,10.30
2019-02-05T19:22:55.538Z,12.00
2019-02-05T19:25:43.680Z,10.67
2019-02-05T19:28:12.562Z,10.90
2019-02-05T19:30:41.827Z,11.93
2019-02-05T19:33:08.918Z,11.27
2019-02-05T19:35:37.653Z,12.07
2019-02-05T19:38:07.206Z,11.57
2019-02-05T19:40:35.389Z,9.97
2019-02-05T19:43:02.939Z,11.13
2019-02-05T19:45:48.814Z,10.37
2019-02-05T19:48:42.354Z,9.70
2019-02-05T19:51:11.949Z,8.23
2019-02-05T19:53:41.419Z,9.20
2019-02-05T19:56:08.877Z,11.00
2019-02-05T19:58:37.428Z,8.13
2019-02-05T20:01:04.511Z,8.20
2019-02-05T20:03:38.817Z,10.07
2019-02-05T20:06:04.649Z,8.23
2019-02-05T20:08:36.106Z,8.83
2019-02-05T20:11:04.508Z,9.00
2019-02-05T20:13:39.984Z,7.03
2019-02-05T20:16:03.946Z,6.83
2019-02-05T20:18:31.166Z,8.60
2019-02-05T20:20:58.296Z,7.60
2019-02-05T20:23:26.176Z,9.17
2019-02-05T20:25:54.661Z,11.10
2019-02-05T20:28:22.410Z,10.20
2019-02-05T20:30:57.296Z,9.30
2019-02-05T20:33:26.248Z,8.90
2019-02-05T20:35:54.298Z,8.70
2019-02-05T20:38:22.074Z,8.53
2019-02-05T20:40:50.676Z,8.00
2019-02-05T20:43:19.434Z,8.50
2019-02-05T20:45:48.430Z,8.40
2019-02-05T20:48:17.437Z,7.90
2019-02-05T20:50:48.370Z,8.10
2019-02-05T20:56:07.108Z,8.90
2019-02-05T20:58:34.808Z,8.70
2019-02-05T21:01:03.175Z,8.40
2019-02-05T21:03:30.521Z,8.97
2019-02-05T21:05:58.711Z,9.77
2019-02-05T21:08:26.871Z,8.57
2019-02-05T21:10:55.564Z,8.50
2019-02-05T21:13:23.327Z,7.73
2019-02-05T21:15:51.701Z,7.33
2019-02-05T21:18:19.778Z,7.10
2019-02-05T21:20:47.947Z,8.10
2019-02-05T21:23:15.985Z,7.47
2019-02-05T21:25:43.960Z,9.97
2019-02-05T21:28:12.266Z,7.10
2019-02-05T21:30:40.173Z,7.70
2019-02-05T21:33:07.545Z,6.00
2019-02-05T21:35:35.248Z,7.03
2019-02-05T21:38:03.177Z,5.90
2019-02-05T21:40:31.636Z,5.83
2019-02-05T21:42:58.750Z,5.17
2019-02-05T21:45:26.615Z,4.00
2019-02-05T21:47:54.381Z,5.10
2019-02-05T21:50:22.165Z,5.17
2019-02-05T21:52:49.721Z,6.37
2019-02-05T21:55:18.500Z,4.70
2019-02-05T21:57:45.955Z,3.53
2019-02-05T22:00:33.278Z,3.33
2019-02-05T22:03:00.579Z,3.53
2019-02-05T22:05:28.517Z,4.57
2019-02-05T22:07:55.510Z,4.90
2019-02-05T22:10:23.994Z,4.67
2019-02-05T22:12:50.982Z,4.07
2019-02-05T22:15:18.800Z,3.67
2019-02-05T22:17:45.784Z,3.67
2019-02-05T22:20:22.881Z,3.77
2019-02-05T22:22:49.810Z,4.50
2019-02-05T22:25:21.161Z,6.57
2019-02-05T22:27:48.058Z,7.23
2019-02-05T22:30:16.381Z,6.97
2019-02-05T22:32:43.430Z,6.93
2019-02-05T22:35:10.374Z,6.90
2019-02-05T22:37:37.527Z,6.23
2019-02-05T22:40:05.939Z,5.63
2019-02-05T22:42:32.852Z,5.63
2019-02-05T22:44:59.908Z,5.20
2019-02-05T22:47:27.153Z,5.60
2019-02-05T22:49:55.233Z,4.23
2019-02-05T22:52:22.130Z,3.60
2019-02-05T22:54:49.321Z,3.20
2019-02-05T22:57:16.749Z,3.17
2019-02-05T22:59:43.936Z,3.30
2019-02-05T23:02:11.394Z,3.20
2019-02-05T23:04:50.129Z,3.80
2019-02-05T23:07:09.281Z,3.87
2019-02-05T23:12:30.889Z,3.90
2019-02-05T23:14:59.805Z,3.50
2019-02-05T23:17:27.261Z,3.80
2019-02-05T23:19:54.516Z,3.70
2019-02-05T23:22:21.709Z,3.40
2019-02-05T23:24:48.817Z,3.80
2019-02-05T23:27:15.972Z,4.23
2019-02-05T23:29:43.331Z,3.30
2019-02-05T23:32:11.879Z,3.17
2019-02-05T23:34:38.954Z,3.10
2019-02-05T23:37:06.002Z,2.90
2019-02-05T23:39:33.042Z,3.10
2019-02-05T23:41:59.996Z,3.53
2019-02-05T23:44:27.037Z,3.23
2019-02-05T23:46:54.602Z,3.17
2019-02-05T23:49:23.698Z,3.00
2019-02-05T23:51:50.894Z,3.27
2019-02-05T23:54:18.026Z,3.40
2019-02-05T23:56:45.039Z,2.00
2019-02-05T23:59:12.094Z,2.77
